Time;durP1;ratioP1;P1;durP2;ratioP2;P2;SDS_P1;SDS_P2;PMS_P1;PMS_P2;Temp;Humidity;BMP_temperature;BMP_pressure;BME280_temperature;BME280_humidity;BME280_pressure;Samples;Min_cycle;Max_cycle;Signal;HPM_P1;HPM_P2
2022/03/28 00:01:15;;;;;;;37.17;24.85;;;20.70;99.90;;;;;;5044264;23;20523;-48
2022/03/28 00:03:41;;;;;;;39.33;26.27;;;20.80;99.90;;;;;;5032796;28;20121;-49
2022/03/28 00:06:09;;;;;;;38.40;25.60;;;20.70;99.90;;;;;;5032822;28;20075;-49
2022/03/28 00:08:37;;;;;;;42.60;25.05;;;20.70;99.90;;;;;;5032526;28;20086;-49
2022/03/28 00:11:04;;;;;;;36.95;25.27;;;20.70;99.90;;;;;;5032529;28;20041;-50
2022/03/28 00:13:29;;;;;;;40.03;25.65;;;20.70;99.90;;;;;;5032557;28;20067;-48
2022/03/28 00:15:55;;;;;;;41.60;27.40;;;20.70;99.90;;;;;;5032520;28;20052;-49
2022/03/28 00:18:21;;;;;;;39.00;25.98;;;20.70;99.90;;;;;;5032500;28;20032;-48
2022/03/28 00:20:49;;;;;;;36.72;26.10;;;20.70;99.90;;;;;;5032365;28;20033;-48
2022/03/28 00:23:16;;;;;;;39.70;24.77;;;20.70;99.90;;;;;;5031206;28;20469;-48
2022/03/28 00:25:44;;;;;;;38.77;26.07;;;20.70;99.90;;;;;;5014866;28;20025;-48
2022/03/28 00:28:10;;;;;;;38.03;25.65;;;20.70;99.90;;;;;;5032412;28;20044;-48
2022/03/28 00:30:36;;;;;;;37.50;26.10;;;20.70;99.90;;;;;;5031701;28;20083;-48
2022/03/28 00:33:02;;;;;;;40.25;26.77;;;20.70;99.90;;;;;;5032207;28;20037;-48
2022/03/28 00:35:29;;;;;;;41.75;26.77;;;20.70;99.90;;;;;;5032229;28;20022;-48
2022/03/28 00:37:55;;;;;;;42.95;27.67;;;20.70;99.90;;;;;;5032104;28;20025;-48
2022/03/28 00:40:22;;;;;;;47.65;27.88;;;20.70;99.90;;;;;;5032015;28;20075;-48
2022/03/28 00:42:48;;;;;;;41.78;28.17;;;20.70;99.90;;;;;;5032105;28;20088;-48
2022/03/28 00:45:14;;;;;;;41.38;27.27;;;20.70;99.90;;;;;;5031917;28;20030;-48
2022/03/28 00:47:40;;;;;;;42.70;29.05;;;20.70;99.90;;;;;;5032224;28;20080;-48
2022/03/28 00:50:08;;;;;;;44.45;27.73;;;20.70;99.90;;;;;;5032046;28;20026;-48
2022/03/28 00:52:34;;;;;;;41.92;27.85;;;20.70;99.90;;;;;;5032046;28;20037;-48
2022/03/28 00:55:03;;;;;;;42.78;28.95;;;20.70;99.90;;;;;;5031806;28;20025;-48
2022/03/28 00:57:32;;;;;;;44.88;29.83;;;20.70;99.90;;;;;;5031799;28;20029;-48
2022/03/28 01:00:05;;;;;;;42.30;28.38;;;20.70;99.90;;;;;;5043444;22;20137;-42
2022/03/28 01:02:31;;;;;;;46.42;30.38;;;20.70;99.90;;;;;;5030489;28;20030;-43
2022/03/28 01:04:58;;;;;;;46.97;30.52;;;20.60;99.90;;;;;;5031724;28;20024;-42
2022/03/28 01:07:26;;;;;;;46.15;29.85;;;20.70;99.90;;;;;;5031709;28;20021;-42
2022/03/28 01:09:55;;;;;;;43.33;30.73;;;20.70;99.90;;;;;;5031512;28;20037;-42
2022/03/28 01:12:23;;;;;;;42.13;29.80;;;20.60;99.90;;;;;;5031606;28;20037;-42
2022/03/28 01:14:53;;;;;;;48.15;31.05;;;20.60;99.90;;;;;;5031623;28;20041;-42
2022/03/28 01:20:04;;;;;;;43.72;30.10;;;20.60;99.90;;;;;;5031512;28;20024;-42
2022/03/28 01:22:29;;;;;;;43.70;29.73;;;20.70;99.90;;;;;;5031774;28;20017;-43
2022/03/28 01:25:00;;;;;;;41.75;28.27;;;20.60;99.90;;;;;;5030190;28;20047;-42
2022/03/28 01:27:27;;;;;;;44.40;30.15;;;20.60;99.90;;;;;;5031426;28;20529;-43
2022/03/28 01:29:52;;;;;;;44.83;30.33;;;20.60;99.90;;;;;;5031362;28;20047;-42
2022/03/28 01:32:18;;;;;;;43.20;28.98;;;20.60;99.90;;;;;;5031200;28;20033;-42
2022/03/28 01:34:44;;;;;;;41.67;29.25;;;20.60;99.90;;;;;;5031553;28;20029;-42
2022/03/28 01:37:10;;;;;;;43.53;29.88;;;20.60;99.90;;;;;;5030018;28;20120;-42
2022/03/28 01:39:36;;;;;;;44.40;29.83;;;20.60;99.90;;;;;;5031404;28;20030;-43
2022/03/28 01:42:01;;;;;;;41.75;28.65;;;20.60;99.90;;;;;;5030946;28;20068;-42
2022/03/28 01:44:27;;;;;;;41.38;28.05;;;20.60;99.90;;;;;;5031023;28;20017;-42
2022/03/28 01:46:53;;;;;;;44.15;28.77;;;20.60;99.90;;;;;;5031150;28;20025;-41
2022/03/28 01:49:20;;;;;;;41.28;28.60;;;20.60;99.90;;;;;;5031202;28;20024;-44
2022/03/28 01:51:47;;;;;;;46.67;30.03;;;20.60;99.90;;;;;;5031105;28;20037;-42
2022/03/28 01:54:13;;;;;;;41.95;27.50;;;20.60;99.90;;;;;;5031184;28;20028;-42
2022/03/28 01:56:40;;;;;;;39.47;28.10;;;20.60;99.90;;;;;;5031088;28;20033;-42
2022/03/28 01:59:07;;;;;;;44.63;29.65;;;20.60;99.90;;;;;;5031676;28;20071;-42
2022/03/28 02:01:33;;;;;;;41.20;28.35;;;20.60;99.90;;;;;;5030975;28;20132;-42
2022/03/28 02:04:00;;;;;;;37.90;27.33;;;20.60;99.90;;;;;;5031028;28;20517;-42
2022/03/28 02:06:26;;;;;;;40.35;27.60;;;20.60;99.90;;;;;;5031048;28;20063;-42
2022/03/28 02:08:53;;;;;;;44.10;27.00;;;20.60;99.90;;;;;;5030962;28;20060;-42
2022/03/28 02:11:19;;;;;;;38.25;27.35;;;20.60;99.90;;;;;;5031054;28;20046;-42
2022/03/28 02:13:45;;;;;;;39.38;28.45;;;20.60;99.90;;;;;;5031175;28;20472;-42
2022/03/28 02:16:11;;;;;;;39.90;27.25;;;20.60;99.90;;;;;;5030768;28;20039;-42
2022/03/28 02:18:38;;;;;;;37.67;26.67;;;20.60;99.90;;;;;;5029571;28;20025;-42
2022/03/28 02:21:04;;;;;;;39.83;27.17;;;20.60;99.90;;;;;;5030879;28;20477;-42
2022/03/28 02:23:30;;;;;;;40.40;27.70;;;20.60;99.90;;;;;;5031036;28;20113;-44
2022/03/28 02:25:57;;;;;;;41.15;27.83;;;20.60;99.90;;;;;;5030857;28;20052;-42
2022/03/28 02:28:23;;;;;;;39.25;27.67;;;20.60;99.90;;;;;;5030681;28;20026;-42
2022/03/28 02:30:49;;;;;;;40.92;27.15;;;20.60;99.90;;;;;;5030872;28;20117;-42
2022/03/28 02:33:15;;;;;;;41.10;26.67;;;20.60;99.90;;;;;;5030859;28;20108;-42
2022/03/28 02:35:41;;;;;;;42.78;27.10;;;20.60;99.90;;;;;;5030678;28;20223;-42
2022/03/28 02:38:08;;;;;;;40.05;26.23;;;20.60;99.90;;;;;;5030691;28;20022;-43
2022/03/28 02:40:34;;;;;;;38.58;26.63;;;20.60;99.90;;;;;;5030625;28;20080;-42
2022/03/28 02:43:02;;;;;;;38.63;25.73;;;20.60;99.90;;;;;;5030581;28;20028;-43
2022/03/28 02:45:32;;;;;;;39.72;25.92;;;20.60;99.90;;;;;;5030600;28;20555;-42
2022/03/28 02:48:01;;;;;;;42.78;26.42;;;20.60;99.90;;;;;;5030792;28;20028;-42
2022/03/28 02:50:30;;;;;;;34.92;25.65;;;20.60;99.90;;;;;;5030550;28;20469;-42
2022/03/28 02:52:56;;;;;;;39.13;25.48;;;20.60;99.90;;;;;;5030698;28;20028;-42
2022/03/28 02:55:22;;;;;;;38.67;27.08;;;20.60;99.90;;;;;;5032682;28;20233;-43
2022/03/28 02:57:48;;;;;;;35.72;25.05;;;20.60;99.90;;;;;;5034152;28;20413;-42
2022/03/28 03:00:14;;;;;;;38.70;26.02;;;20.60;99.90;;;;;;5034387;28;20050;-42
2022/03/28 03:02:42;;;;;;;36.38;26.33;;;20.60;99.90;;;;;;5034097;28;20034;-42
2022/03/28 03:05:09;;;;;;;43.05;26.27;;;20.60;99.90;;;;;;5034120;28;20033;-42
2022/03/28 03:07:35;;;;;;;37.15;25.42;;;20.60;99.90;;;;;;5033943;28;20052;-42
2022/03/28 03:10:01;;;;;;;37.33;25.10;;;20.60;99.90;;;;;;5033811;28;20461;-42
2022/03/28 03:12:27;;;;;;;38.38;26.20;;;20.60;99.90;;;;;;5033624;28;20029;-42
2022/03/28 03:14:53;;;;;;;36.33;25.10;;;20.60;99.90;;;;;;5033955;28;20029;-41
2022/03/28 03:17:20;;;;;;;39.85;26.40;;;20.60;99.90;;;;;;5033829;28;20043;-42
2022/03/28 03:19:46;;;;;;;36.50;25.53;;;20.60;99.90;;;;;;5033865;28;20076;-42
2022/03/28 03:22:15;;;;;;;37.95;26.35;;;20.60;99.90;;;;;;5033521;28;20665;-42
2022/03/28 03:24:43;;;;;;;38.17;26.30;;;20.60;99.90;;;;;;5033649;28;20096;-42
2022/03/28 03:27:09;;;;;;;39.53;25.50;;;20.60;99.90;;;;;;5033674;28;20071;-42
2022/03/28 03:29:36;;;;;;;39.58;26.58;;;20.60;99.90;;;;;;5032214;28;20025;-42
2022/03/28 03:32:03;;;;;;;35.47;24.50;;;20.60;99.90;;;;;;5033321;28;20029;-42
2022/03/28 03:34:29;;;;;;;38.78;25.85;;;20.60;99.90;;;;;;5032121;28;20022;-43
2022/03/28 03:36:55;;;;;;;39.53;25.73;;;20.60;99.90;;;;;;5033429;28;20044;-42
2022/03/28 03:39:22;;;;;;;38.55;25.27;;;20.60;99.90;;;;;;5033571;28;20167;-42
2022/03/28 03:41:49;;;;;;;36.42;24.95;;;20.60;99.90;;;;;;5033492;28;20026;-42
2022/03/28 03:44:15;;;;;;;42.20;26.97;;;20.60;99.90;;;;;;5033227;28;20045;-42
2022/03/28 03:46:41;;;;;;;39.95;25.75;;;20.60;99.90;;;;;;5033252;28;20596;-42
2022/03/28 03:49:08;;;;;;;36.25;25.23;;;20.60;99.90;;;;;;5033199;28;20049;-43
2022/03/28 03:51:35;;;;;;;35.58;24.92;;;20.60;99.90;;;;;;5033020;28;20087;-43
2022/03/28 03:54:01;;;;;;;36.50;24.55;;;20.50;99.90;;;;;;5033222;28;20045;-43
2022/03/28 03:56:30;;;;;;;34.38;24.98;;;20.60;99.90;;;;;;5032985;28;20037;-44
2022/03/28 03:58:56;;;;;;;35.65;23.60;;;20.50;99.90;;;;;;5032863;28;20079;-42
2022/03/28 04:01:23;;;;;;;35.85;24.17;;;20.50;99.90;;;;;;5033959;28;20052;-41
2022/03/28 04:03:49;;;;;;;35.30;23.75;;;20.60;99.90;;;;;;5033055;28;20037;-41
2022/03/28 04:06:15;;;;;;;31.83;24.42;;;20.50;99.90;;;;;;5032570;28;20025;-41
2022/03/28 04:08:41;;;;;;;33.22;23.08;;;20.60;99.90;;;;;;5032703;28;20552;-42
2022/03/28 04:11:07;;;;;;;34.40;24.00;;;20.60;99.90;;;;;;5032507;28;20136;-41
2022/03/28 04:13:34;;;;;;;35.38;24.00;;;20.60;99.90;;;;;;5032627;28;20040;-41
2022/03/28 04:16:00;;;;;;;34.95;24.50;;;20.60;99.90;;;;;;5033001;28;20020;-41
2022/03/28 04:18:27;;;;;;;36.55;24.25;;;20.60;99.90;;;;;;5032473;28;20032;-41
2022/03/28 04:20:54;;;;;;;35.80;24.05;;;20.60;99.90;;;;;;5032583;28;20101;-41
2022/03/28 04:23:20;;;;;;;35.20;24.00;;;20.60;99.90;;;;;;5032824;28;20120;-44
2022/03/28 04:25:45;;;;;;;36.45;24.60;;;20.60;99.90;;;;;;5032297;28;20025;-42
2022/03/28 04:28:11;;;;;;;32.78;23.42;;;20.60;99.90;;;;;;5032355;28;20381;-42
2022/03/28 04:30:37;;;;;;;34.85;23.10;;;20.60;99.90;;;;;;5032423;28;20034;-43
2022/03/28 04:33:04;;;;;;;34.85;23.50;;;20.50;99.90;;;;;;5032216;28;20039;-43
2022/03/28 04:35:30;;;;;;;32.65;23.25;;;20.60;99.90;;;;;;5032198;28;20025;-43
2022/03/28 04:37:56;;;;;;;30.60;21.70;;;20.60;99.90;;;;;;5032211;28;20068;-43
2022/03/28 04:40:22;;;;;;;33.63;23.27;;;20.60;99.90;;;;;;5032328;28;20097;-42
2022/03/28 04:42:48;;;;;;;33.88;24.33;;;20.60;99.90;;;;;;5032037;28;20108;-43
2022/03/28 04:45:14;;;;;;;33.05;22.52;;;20.50;99.90;;;;;;5032233;28;20033;-43
2022/03/28 04:47:40;;;;;;;34.42;23.35;;;20.60;99.90;;;;;;5031853;28;20025;-42
2022/03/28 04:50:07;;;;;;;32.75;23.13;;;20.60;99.90;;;;;;5032096;28;20032;-42
2022/03/28 04:52:34;;;;;;;35.17;24.00;;;20.60;99.90;;;;;;5031854;28;20040;-42
2022/03/28 04:55:00;;;;;;;35.30;23.27;;;20.60;99.90;;;;;;5030552;28;20389;-43
2022/03/28 04:57:26;;;;;;;34.03;22.35;;;20.60;99.90;;;;;;5031679;28;20033;-42
2022/03/28 04:59:52;;;;;;;32.95;22.35;;;20.60;99.90;;;;;;5031854;28;20052;-44
2022/03/28 05:02:18;;;;;;;33.00;23.10;;;20.60;99.90;;;;;;5031508;28;20090;-44
2022/03/28 05:04:44;;;;;;;30.42;21.35;;;20.60;99.90;;;;;;5031877;28;20033;-43
2022/03/28 05:07:10;;;;;;;33.72;22.23;;;20.60;99.90;;;;;;5031602;28;20026;-43
2022/03/28 05:09:35;;;;;;;29.45;21.85;;;20.60;99.90;;;;;;5031603;28;20026;-43
2022/03/28 05:12:01;;;;;;;32.72;22.42;;;20.60;99.90;;;;;;5031598;28;20129;-43
2022/03/28 05:14:27;;;;;;;31.63;21.55;;;20.60;99.90;;;;;;5031632;28;20048;-43
2022/03/28 05:16:53;;;;;;;32.90;21.95;;;20.60;99.90;;;;;;5031358;28;20076;-43
2022/03/28 05:19:19;;;;;;;29.80;20.52;;;20.60;99.90;;;;;;5030276;28;20533;-43
2022/03/28 05:21:44;;;;;;;31.73;21.85;;;20.60;99.90;;;;;;5031318;28;20029;-43
2022/03/28 05:24:10;;;;;;;33.53;21.48;;;20.60;99.90;;;;;;5031298;28;20053;-43
2022/03/28 05:26:36;;;;;;;33.05;21.92;;;20.60;99.90;;;;;;5031535;28;20029;-43
2022/03/28 05:29:02;;;;;;;28.77;21.15;;;20.50;99.90;;;;;;5031280;28;20021;-43
2022/03/28 05:31:28;;;;;;;29.08;19.85;;;20.60;99.90;;;;;;5030205;28;20482;-43
2022/03/28 05:33:54;;;;;;;29.13;20.30;;;20.60;99.90;;;;;;5031375;28;20026;-43
2022/03/28 05:36:20;;;;;;;33.53;21.17;;;20.60;99.90;;;;;;5031225;28;20037;-43
2022/03/28 05:38:46;;;;;;;29.25;20.10;;;20.50;99.90;;;;;;5031224;28;20034;-43
2022/03/28 05:41:12;;;;;;;30.13;20.38;;;20.60;99.90;;;;;;5031021;28;20025;-43
2022/03/28 05:43:38;;;;;;;30.40;19.77;;;20.60;99.90;;;;;;5029739;28;20544;-43
2022/03/28 05:46:05;;;;;;;29.58;20.58;;;20.50;99.90;;;;;;5030985;28;20025;-43
2022/03/28 05:48:31;;;;;;;27.75;19.27;;;20.60;99.90;;;;;;5031184;28;20034;-42
2022/03/28 05:50:57;;;;;;;30.48;19.88;;;20.50;99.90;;;;;;5031058;28;20033;-43
2022/03/28 05:53:23;;;;;;;31.80;20.30;;;20.50;99.90;;;;;;5031015;28;20026;-42
2022/03/28 05:55:49;;;;;;;30.38;18.55;;;20.50;99.90;;;;;;5030954;28;20025;-42
2022/03/28 05:58:15;;;;;;;30.80;21.15;;;20.50;99.90;;;;;;5030861;28;20105;-42
2022/03/28 06:00:41;;;;;;;30.13;19.67;;;20.50;99.90;;;;;;5031023;28;20041;-42
2022/03/28 06:03:10;;;;;;;30.15;19.60;;;20.50;99.90;;;;;;5030970;28;20097;-43
2022/03/28 06:05:36;;;;;;;33.30;19.10;;;20.40;99.90;;;;;;5031031;28;20100;-42
2022/03/28 06:08:03;;;;;;;28.77;19.52;;;20.50;99.90;;;;;;5031174;28;20037;-42
2022/03/28 06:10:29;;;;;;;35.13;20.40;;;20.50;99.90;;;;;;5030996;28;20397;-42
2022/03/28 06:12:55;;;;;;;29.08;19.88;;;20.50;99.90;;;;;;5031152;28;20034;-43
2022/03/28 06:15:21;;;;;;;37.80;21.27;;;20.50;99.90;;;;;;5031158;28;20381;-42
2022/03/28 06:17:47;;;;;;;55.63;20.73;;;20.50;99.90;;;;;;5030965;28;20029;-42
2022/03/28 06:20:13;;;;;;;32.20;19.23;;;20.40;99.90;;;;;;5030898;28;20029;-42
2022/03/28 06:22:40;;;;;;;32.42;19.13;;;20.50;99.90;;;;;;5029114;28;20455;-42
2022/03/28 06:25:08;;;;;;;33.30;18.43;;;20.40;99.90;;;;;;5019507;28;20052;-43
2022/03/28 06:27:40;;;;;;;29.85;19.02;;;20.50;99.90;;;;;;5045430;28;20481;-42
2022/03/28 06:30:11;;;;;;;32.85;19.90;;;20.50;99.90;;;;;;5019714;28;20042;-43
2022/03/28 06:32:36;;;;;;;34.33;18.75;;;20.40;99.90;;;;;;5034633;28;20041;-43
2022/03/28 06:35:04;;;;;;;30.70;18.95;;;20.50;99.90;;;;;;5033074;28;20033;-43
2022/03/28 06:37:30;;;;;;;34.40;19.38;;;20.50;99.90;;;;;;5034753;28;20476;-42
2022/03/28 06:39:56;;;;;;;35.08;19.60;;;20.50;99.90;;;;;;5034668;28;20117;-43
2022/03/28 06:42:22;;;;;;;30.58;18.55;;;20.50;99.90;;;;;;5034365;28;20026;-43
2022/03/28 06:44:48;;;;;;;27.38;18.88;;;20.50;99.90;;;;;;5034130;28;20029;-43
2022/03/28 06:47:14;;;;;;;28.58;18.83;;;20.50;99.90;;;;;;5034106;28;20026;-43
2022/03/28 06:49:39;;;;;;;29.02;17.85;;;20.50;99.90;;;;;;5034477;28;20022;-44
2022/03/28 06:52:06;;;;;;;29.48;18.20;;;20.50;99.90;;;;;;5034320;28;20388;-43
2022/03/28 06:54:33;;;;;;;28.98;18.08;;;20.50;99.90;;;;;;5034330;28;20025;-43
2022/03/28 06:56:59;;;;;;;30.65;18.83;;;20.50;99.90;;;;;;5034374;28;20436;-43
2022/03/28 06:59:24;;;;;;;31.98;17.52;;;20.50;99.90;;;;;;5034719;28;20026;-43
2022/03/28 07:01:51;;;;;;;30.92;19.75;;;20.50;99.90;;;;;;5034098;28;20060;-44
2022/03/28 07:04:16;;;;;;;29.60;18.50;;;20.50;99.90;;;;;;5033943;28;20535;-42
2022/03/28 07:06:42;;;;;;;25.08;16.88;;;20.50;99.90;;;;;;5033927;28;20104;-42
2022/03/28 07:09:08;;;;;;;29.98;18.75;;;20.50;99.90;;;;;;5032618;28;20563;-43
2022/03/28 07:11:34;;;;;;;31.95;17.60;;;20.50;99.90;;;;;;5033630;28;20037;-42
2022/03/28 07:14:00;;;;;;;27.13;16.33;;;20.50;99.90;;;;;;5034043;28;20418;-43
2022/03/28 07:16:26;;;;;;;29.23;17.20;;;20.50;99.90;;;;;;5033735;28;20104;-43
2022/03/28 07:18:52;;;;;;;27.65;16.23;;;20.50;99.90;;;;;;5033695;28;20112;-43
2022/03/28 07:21:18;;;;;;;29.95;17.17;;;20.50;99.90;;;;;;5032361;28;20397;-43
2022/03/28 07:23:44;;;;;;;26.08;16.98;;;20.50;99.90;;;;;;5033594;28;20025;-43
2022/03/28 07:26:10;;;;;;;29.23;17.67;;;20.50;99.90;;;;;;5033569;28;20029;-43
2022/03/28 07:28:39;;;;;;;27.13;16.60;;;20.50;99.90;;;;;;5033400;28;20112;-43
2022/03/28 07:31:08;;;;;;;29.85;18.45;;;20.50;99.90;;;;;;5033321;28;20033;-43
2022/03/28 07:33:44;;;;;;;30.83;17.30;;;20.50;99.90;;;;;;5033587;28;20033;-42
2022/03/28 07:36:10;;;;;;;30.42;18.10;;;20.50;99.90;;;;;;5033455;28;20377;-42
2022/03/28 07:38:36;;;;;;;31.48;17.80;;;20.50;99.90;;;;;;5033520;28;20029;-45
2022/03/28 07:41:03;;;;;;;32.28;17.23;;;20.50;99.90;;;;;;5032970;28;20358;-42
2022/03/28 07:43:29;;;;;;;28.77;17.55;;;20.50;99.90;;;;;;5033219;28;20095;-43
2022/03/28 07:45:55;;;;;;;31.52;20.25;;;20.50;99.90;;;;;;5033073;28;20041;-42
2022/03/28 07:48:22;;;;;;;36.70;21.40;;;20.50;99.90;;;;;;5032916;28;20029;-43
2022/03/28 07:50:49;;;;;;;28.80;19.02;;;20.50;99.90;;;;;;5033030;28;20115;-42
2022/03/28 07:53:15;;;;;;;34.92;21.48;;;20.50;99.90;;;;;;5033009;28;20108;-43
2022/03/28 07:55:42;;;;;;;31.98;20.38;;;20.60;99.90;;;;;;5031575;28;20068;-42
2022/03/28 07:58:09;;;;;;;36.90;20.60;;;20.60;99.90;;;;;;5032891;28;20025;-42
2022/03/28 08:00:35;;;;;;;33.83;21.47;;;20.60;99.90;;;;;;5032940;28;20050;-42
2022/03/28 08:03:01;;;;;;;29.80;20.90;;;20.60;99.90;;;;;;5032998;28;20259;-43
2022/03/28 08:05:28;;;;;;;35.42;21.42;;;20.60;99.90;;;;;;5032965;28;20056;-43
2022/03/28 08:07:54;;;;;;;35.38;20.95;;;20.60;99.90;;;;;;5032812;28;20547;-43
2022/03/28 08:10:21;;;;;;;30.08;21.58;;;20.60;99.90;;;;;;5032604;28;20057;-43
2022/03/28 08:12:48;;;;;;;32.13;21.63;;;20.70;99.90;;;;;;5032676;28;20045;-43
2022/03/28 08:15:16;;;;;;;35.53;21.33;;;20.60;99.90;;;;;;5031518;28;20083;-43
2022/03/28 08:17:42;;;;;;;36.33;23.20;;;20.70;99.90;;;;;;5032756;28;20084;-43
2022/03/28 08:20:11;;;;;;;35.63;23.10;;;20.70;99.90;;;;;;5032471;28;20631;-43
2022/03/28 08:22:44;;;;;;;30.48;19.83;;;20.70;99.90;;;;;;5032668;28;20033;-43
2022/03/28 08:25:10;;;;;;;34.55;22.77;;;20.70;99.90;;;;;;5032475;28;20027;-43
2022/03/28 08:27:36;;;;;;;36.38;21.33;;;20.70;99.90;;;;;;5032411;28;20037;-43
2022/03/28 08:30:03;;;;;;;38.17;23.38;;;20.70;99.90;;;;;;5032480;28;20083;-44
2022/03/28 08:32:28;;;;;;;43.27;26.63;;;20.70;99.90;;;;;;5032251;28;20037;-43
2022/03/28 08:34:54;;;;;;;43.35;27.02;;;20.70;99.90;;;;;;5032242;28;20345;-42
2022/03/28 08:37:21;;;;;;;43.20;27.15;;;20.70;99.90;;;;;;5032103;28;20505;-42
2022/03/28 08:39:49;;;;;;;38.50;26.27;;;20.70;99.90;;;;;;5031992;28;20029;-43
2022/03/28 08:42:16;;;;;;;43.15;29.13;;;20.70;99.90;;;;;;5032125;28;20481;-42
2022/03/28 08:44:42;;;;;;;39.97;26.57;;;20.70;99.90;;;;;;5032061;28;20029;-43
2022/03/28 08:47:12;;;;;;;46.63;30.17;;;20.70;99.90;;;;;;5032049;28;20271;-42
2022/03/28 08:49:38;;;;;;;53.47;32.42;;;20.70;99.90;;;;;;5032819;28;20478;-43
2022/03/28 08:52:05;;;;;;;47.33;31.55;;;20.70;99.90;;;;;;5038519;28;20080;-42
2022/03/28 08:54:31;;;;;;;48.35;32.05;;;20.70;99.90;;;;;;5031303;28;20432;-43
2022/03/28 08:56:57;;;;;;;54.00;31.58;;;20.70;99.90;;;;;;5031703;28;20108;-42
2022/03/28 08:59:23;;;;;;;50.70;31.52;;;20.70;99.90;;;;;;5031730;28;20028;-42
2022/03/28 09:01:50;;;;;;;52.42;34.03;;;20.70;99.90;;;;;;5031755;28;20489;-42
2022/03/28 09:04:16;;;;;;;53.17;33.63;;;20.70;99.90;;;;;;5031782;28;20100;-42
2022/03/28 09:06:44;;;;;;;49.25;32.97;;;20.70;99.90;;;;;;5031561;28;20501;-42
2022/03/28 09:09:27;;;;;;;52.42;32.55;;;20.70;99.90;;;;;;5031557;28;20021;-42
2022/03/28 09:12:08;;;;;;;47.17;30.63;;;20.70;99.90;;;;;;5031362;28;20393;-42
2022/03/28 09:14:37;;;;;;;47.45;30.70;;;20.70;99.90;;;;;;5031773;28;20067;-42
2022/03/28 09:17:05;;;;;;;45.63;31.33;;;20.70;99.90;;;;;;5031486;28;20481;-42
2022/03/28 09:19:46;;;;;;;49.55;31.55;;;20.70;99.90;;;;;;5031582;28;20032;-43
2022/03/28 09:22:13;;;;;;;47.97;29.15;;;20.70;99.90;;;;;;5031294;28;20021;-43
2022/03/28 09:24:39;;;;;;;;;;;20.70;99.90;;;;;;5032049;28;20028;-42
2022/03/28 09:27:13;;;;;;;49.17;29.15;;;20.70;99.90;;;;;;5031659;28;19931;-43
2022/03/28 09:29:58;;;;;;;45.65;28.50;;;20.70;99.90;;;;;;5013947;28;20497;-43
2022/03/28 09:32:29;;;;;;;43.92;29.13;;;20.70;99.90;;;;;;5031344;28;20507;-44
2022/03/28 09:35:07;;;;;;;43.35;27.48;;;20.70;99.90;;;;;;5030217;28;20151;-51
2022/03/28 09:38:04;;;;;;;44.20;26.98;;;20.70;99.90;;;;;;5031490;28;20504;-43
2022/03/28 09:40:51;;;;;;;42.65;27.58;;;20.70;99.90;;;;;;5031242;28;20755;-43
2022/03/28 09:43:29;;;;;;;46.58;26.77;;;20.60;99.90;;;;;;5031213;28;20060;-42
2022/03/28 09:45:57;;;;;;;;;;;20.70;99.90;;;;;;5031519;28;20029;-42
2022/03/28 09:48:27;;;;;;;35.88;24.77;;;20.70;99.90;;;;;;5031141;28;19905;-43
2022/03/28 09:51:05;;;;;;;39.25;25.35;;;20.70;99.90;;;;;;5031096;28;20112;-43
2022/03/28 09:53:32;;;;;;;;;;;20.70;99.90;;;;;;5031469;28;20022;-43
2022/03/28 09:56:07;;;;;;;37.25;25.20;;;20.70;99.90;;;;;;5031021;28;19959;-42
2022/03/28 09:58:49;;;;;;;39.85;24.83;;;20.70;99.90;;;;;;5031002;28;20453;-42
2022/03/28 10:01:20;;;;;;;39.50;24.20;;;20.70;99.90;;;;;;5030800;28;20046;-42
2022/03/28 10:03:48;;;;;;;38.38;23.60;;;20.70;99.90;;;;;;5032149;28;20037;-42
2022/03/28 10:06:14;;;;;;;37.50;24.48;;;20.60;99.90;;;;;;5033751;28;20039;-43
2022/03/28 10:08:41;;;;;;;41.22;23.15;;;20.70;99.90;;;;;;5035155;28;20490;-43
2022/03/28 10:11:07;;;;;;;36.45;22.38;;;20.70;99.90;;;;;;5034846;28;20492;-43
2022/03/28 10:13:33;;;;;;;36.35;23.45;;;20.70;99.90;;;;;;5035022;28;20045;-43
2022/03/28 10:16:00;;;;;;;37.30;23.25;;;20.70;99.90;;;;;;5034702;28;20029;-44
2022/03/28 10:18:31;;;;;;;39.72;22.92;;;20.70;99.90;;;;;;5034818;28;20026;-43
2022/03/28 10:21:01;;;;;;;32.00;21.60;;;20.70;99.90;;;;;;5034742;28;20061;-43
2022/03/28 10:23:33;;;;;;;36.38;22.23;;;20.60;99.90;;;;;;5034733;28;20022;-43
2022/03/28 10:26:01;;;;;;;38.63;21.85;;;20.60;99.90;;;;;;5034476;28;20397;-43
2022/03/28 10:28:27;;;;;;;40.30;21.77;;;20.60;99.90;;;;;;5034589;28;20029;-44
2022/03/28 10:31:13;;;;;;;36.00;21.33;;;20.60;99.90;;;;;;5034410;28;20041;-43
2022/03/28 10:33:50;;;;;;;35.38;21.42;;;20.60;99.90;;;;;;5034574;28;20338;-42
2022/03/28 10:36:28;;;;;;;34.20;21.13;;;20.60;99.90;;;;;;5034428;28;20072;-43
2022/03/28 10:39:15;;;;;;;32.60;21.23;;;20.60;99.90;;;;;;5034412;28;20135;-43
2022/03/28 10:41:41;;;;;;;34.72;20.48;;;20.70;99.90;;;;;;5034609;28;20025;-43
2022/03/28 10:44:07;;;;;;;31.05;20.30;;;20.70;99.90;;;;;;5034193;28;20040;-43
2022/03/28 10:46:35;;;;;;;34.45;21.67;;;20.70;99.90;;;;;;5034301;28;20038;-43
2022/03/28 10:49:02;;;;;;;34.28;20.90;;;20.60;99.90;;;;;;5034139;28;20025;-43
2022/03/28 10:51:31;;;;;;;32.42;20.85;;;20.70;99.90;;;;;;5034042;28;20493;-43
2022/03/28 10:54:06;;;;;;;33.08;19.95;;;20.70;99.90;;;;;;5034060;28;20187;-43
2022/03/28 10:56:35;;;;;;;34.22;20.40;;;20.70;99.90;;;;;;5034053;28;20025;-43
2022/03/28 10:59:07;;;;;;;34.28;20.15;;;20.70;99.90;;;;;;5033998;28;20025;-43
2022/03/28 11:01:36;;;;;;;29.67;19.10;;;20.70;99.90;;;;;;5033877;28;20505;-43
2022/03/28 11:04:04;;;;;;;36.00;20.75;;;20.70;99.90;;;;;;5033991;28;20036;-43
2022/03/28 11:07:11;;;;;;;35.60;20.48;;;20.70;99.90;;;;;;5032535;28;20547;-43
2022/03/28 11:09:48;;;;;;;30.38;19.65;;;20.70;99.90;;;;;;4991934;28;20544;-43
2022/03/28 11:12:39;;;;;;;35.63;19.40;;;20.60;99.90;;;;;;5030146;28;20064;-43
2022/03/28 11:15:21;;;;;;;31.10;19.63;;;20.70;99.90;;;;;;5032819;28;20037;-43
2022/03/28 11:17:58;;;;;;;36.95;21.42;;;20.70;99.90;;;;;;5033566;28;20034;-42
2022/03/28 11:20:26;;;;;;;32.55;19.25;;;20.70;99.90;;;;;;5033708;28;20029;-44
2022/03/28 11:22:54;;;;;;;;;;;20.70;99.90;;;;;;5034127;28;20022;-45
2022/03/28 11:25:41;;;;;;;33.38;20.10;;;20.70;99.90;;;;;;5033807;28;20003;-42
2022/03/28 11:28:24;;;;;;;32.47;19.70;;;20.70;99.90;;;;;;5033513;28;20029;-44
2022/03/28 11:30:58;;;;;;;31.23;19.52;;;20.70;99.90;;;;;;5033182;28;20050;-43
2022/03/28 11:33:37;;;;;;;31.05;19.85;;;20.70;99.90;;;;;;5033379;28;20029;-43
2022/03/28 11:36:04;;;;;;;30.25;18.98;;;20.70;99.90;;;;;;5033548;28;20033;-43
2022/03/28 11:38:32;;;;;;;;;;;20.80;99.90;;;;;;5033915;28;20115;-43
2022/03/28 11:41:00;;;;;;;36.88;19.55;;;20.80;99.90;;;;;;5033209;28;20000;-43
2022/03/28 11:43:37;;;;;;;29.30;18.58;;;20.80;99.90;;;;;;5033240;28;20017;-44
2022/03/28 11:46:19;;;;;;;28.67;19.25;;;20.80;99.90;;;;;;5033139;28;20029;-44
2022/03/28 11:48:52;;;;;;;32.05;20.77;;;20.80;99.90;;;;;;5033408;28;20025;-43
2022/03/28 11:51:18;;;;;;;30.92;18.85;;;20.80;99.90;;;;;;5033057;28;20108;-45
2022/03/28 11:53:45;;;;;;;33.08;18.80;;;20.80;99.90;;;;;;5033241;28;20037;-45
2022/03/28 11:56:21;;;;;;;30.73;20.00;;;20.80;99.90;;;;;;5032989;28;20060;-45
2022/03/28 11:58:46;;;;;;;31.15;19.23;;;20.80;99.90;;;;;;5033227;28;20056;-44
2022/03/28 12:01:12;;;;;;;32.15;19.75;;;20.80;99.90;;;;;;5032855;28;20061;-43
2022/03/28 12:03:48;;;;;;;29.17;19.15;;;20.80;99.90;;;;;;5032822;28;20044;-43
2022/03/28 12:06:26;;;;;;;30.55;18.95;;;20.80;99.90;;;;;;5032989;28;20026;-44
2022/03/28 12:08:52;;;;;;;;;;;20.80;99.90;;;;;;5033145;28;20558;-44
2022/03/28 12:11:17;;;;;;;30.67;18.30;;;20.90;99.90;;;;;;5032871;28;20012;-44
2022/03/28 12:13:44;;;;;;;29.50;18.08;;;20.90;99.90;;;;;;5032841;28;20029;-43
2022/03/28 12:16:10;;;;;;;27.35;17.42;;;20.80;99.90;;;;;;5032613;28;20058;-43
2022/03/28 12:18:35;;;;;;;30.63;18.20;;;20.80;99.90;;;;;;5032402;28;20072;-42
2022/03/28 12:21:01;;;;;;;29.95;17.15;;;20.80;99.90;;;;;;5032452;28;20029;-42
2022/03/28 12:23:28;;;;;;;28.15;17.77;;;20.90;99.90;;;;;;5032447;28;20017;-43
2022/03/28 12:25:59;;;;;;;27.75;18.25;;;20.80;99.90;;;;;;5032587;28;20487;-43
2022/03/28 12:28:33;;;;;;;28.20;18.25;;;20.90;99.90;;;;;;5032201;28;20108;-43
2022/03/28 12:31:01;;;;;;;30.58;18.48;;;20.80;99.90;;;;;;5032160;28;20080;-43
2022/03/28 12:33:35;;;;;;;28.85;18.77;;;20.90;99.90;;;;;;5032095;28;20079;-43
2022/03/28 12:36:06;;;;;;;27.42;18.33;;;20.90;99.90;;;;;;5032024;28;20021;-43